Home > Products > Valid Products > TAF

000
FTUS45 KBOI 011733
TAFTWF
TAF
KTWF 011733Z 0118/0218 29010KT P6SM SKC
     FM020400 19008KT P6SM SKC
     FM021700 27008KT P6SM SKC=



000
FTUS45 KBOI 011733
TAFMYL
TAF
KMYL 011733Z 0118/0218 22006KT P6SM SKC
     FM020300 VRB03KT P6SM SKC=



000
FTUS45 KBOI 011733
TAFBOI
TAF
KBOI 011733Z 0118/0218 VRB05KT P6SM SKC
     FM020400 13005KT P6SM SKC=



000
FTUS45 KBOI 011733
TAFJER
TAF
KJER 011733Z 0118/0218 24012KT P6SM SKC
     FM020400 16005KT P6SM SKC=



000
FTUS45 KBOI 011733
TAFBKE
TAF
KBKE 011733Z 0118/0218 VRB03KT P6SM SKC
     FM012300 35007KT P6SM SKC
     FM020300 VRB03KT P6SM SKC=



000
FTUS45 KBOI 011733
TAFTWF
TAF
KTWF 011733Z 0118/0218 29010KT P6SM SKC
     FM020400 19008KT P6SM SKC
     FM021700 27008KT P6SM SKC=



000
FTUS45 KBOI 011733
TAFBKE
TAF
KBKE 011733Z 0118/0218 VRB03KT P6SM SKC
     FM012300 35007KT P6SM SKC
     FM020300 VRB03KT P6SM SKC=



000
FTUS45 KBOI 011733
TAFBNO
TAF
KBNO 011733Z 0118/0218 VRB05KT P6SM SKC=



000
FTUS45 KBOI 011733
TAFBOI
TAF
KBOI 011733Z 0118/0218 VRB05KT P6SM SKC
     FM020400 13005KT P6SM SKC=



000
FTUS45 KBOI 011733
TAFJER
TAF
KJER 011733Z 0118/0218 24012KT P6SM SKC
     FM020400 16005KT P6SM SKC=



000
FTUS45 KBOI 011733
TAFMYL
TAF
KMYL 011733Z 0118/0218 22006KT P6SM SKC
     FM020300 VRB03KT P6SM SKC=



000
FTUS45 KBOI 011733
TAFBNO
TAF
KBNO 011733Z 0118/0218 VRB05KT P6SM SKC=



000
FTUS45 KBOI 011607 AAA
TAFJER
TAF AMD
KJER 011607Z 0116/0212 21010KT P6SM SKC
     FM011800 26014KT P6SM SKC
     FM020400 VRB05KT P6SM SKC=



000
FTUS45 KBOI 011607 AAA
TAFJER
TAF AMD
KJER 011607Z 0116/0212 21010KT P6SM SKC
     FM011800 26014KT P6SM SKC
     FM020400 VRB05KT P6SM SKC=



000
FTUS45 KBOI 011120
TAFBOI
TAF
KBOI 011120Z 0112/0212 14004KT P6SM SKC
     FM011700 30006KT P6SM SKC
     FM020400 13005KT P6SM SKC=



000
FTUS45 KBOI 011120
TAFTWF
TAF
KTWF 011120Z 0112/0212 19011KT P6SM SKC
     FM011600 27014KT P6SM SKC
     FM020200 20007KT P6SM SKC=



000
FTUS45 KBOI 011120
TAFMYL
TAF
KMYL 011120Z 0112/0212 VRB03KT P6SM SKC
     FM012100 22008KT P6SM SKC
     FM020300 VRB03KT P6SM SKC=



000
FTUS45 KBOI 011120
TAFMYL
TAF
KMYL 011120Z 0112/0212 VRB03KT P6SM SKC
     FM012100 22008KT P6SM SKC
     FM020300 VRB03KT P6SM SKC=



000
FTUS45 KBOI 011120
TAFBKE
TAF
KBKE 011120Z 0112/0212 VRB04KT P6SM SKC
     FM012200 30007KT P6SM SKC
     FM020400 VRB04KT P6SM SKC=



000
FTUS45 KBOI 011120
TAFJER
TAF
KJER 011120Z 0112/0212 VRB05KT P6SM SKC
     FM011600 26014KT P6SM SKC
     FM020400 VRB05KT P6SM SKC=



000
FTUS45 KBOI 011120
TAFTWF
TAF
KTWF 011120Z 0112/0212 19011KT P6SM SKC
     FM011600 27014KT P6SM SKC
     FM020200 20007KT P6SM SKC=



000
FTUS45 KBOI 011120
TAFBNO
TAF
KBNO 011120Z 0112/0212 VRB05KT P6SM SKC=



000
FTUS45 KBOI 011120
TAFBKE
TAF
KBKE 011120Z 0112/0212 VRB04KT P6SM SKC
     FM012200 30007KT P6SM SKC
     FM020400 VRB04KT P6SM SKC=



000
FTUS45 KBOI 011120
TAFJER
TAF
KJER 011120Z 0112/0212 VRB05KT P6SM SKC
     FM011600 26014KT P6SM SKC
     FM020400 VRB05KT P6SM SKC=



000
FTUS45 KBOI 011120
TAFBOI
TAF
KBOI 011120Z 0112/0212 14004KT P6SM SKC
     FM011700 30006KT P6SM SKC
     FM020400 13005KT P6SM SKC=



000
FTUS45 KBOI 011120
TAFBNO
TAF
KBNO 011120Z 0112/0212 VRB05KT P6SM SKC=



000
FTUS45 KBOI 010520
TAFBNO
TAF
KBNO 010520Z 0106/0206 VRB05KT P6SM SKC=



000
FTUS45 KBOI 010520
TAFMYL
TAF
KMYL 010520Z 0106/0206 VRB05KT P6SM SKC=



000
FTUS45 KBOI 010520
TAFTWF
TAF
KTWF 010520Z 0106/0206 21010KT P6SM SKC
     FM011600 27013KT P6SM SKC
     FM020200 20006KT P6SM SKC=



000
FTUS45 KBOI 010520
TAFBKE
TAF
KBKE 010520Z 0106/0206 30005KT P6SM SKC=



000
FTUS45 KBOI 010520
TAFBOI
TAF
KBOI 010520Z 0106/0206 16006KT P6SM SKC
     FM011600 27006KT P6SM SKC=



000
FTUS45 KBOI 010520
TAFBKE
TAF
KBKE 010520Z 0106/0206 30005KT P6SM SKC=



000
FTUS45 KBOI 010520
TAFJER
TAF
KJER 010520Z 0106/0206 19006KT P6SM SKC
     FM011600 25012KT P6SM SKC
     FM020400 VRB05KT P6SM SKC=



000
FTUS45 KBOI 010520
TAFTWF
TAF
KTWF 010520Z 0106/0206 21010KT P6SM SKC
     FM011600 27013KT P6SM SKC
     FM020200 20006KT P6SM SKC=



000
FTUS45 KBOI 010520
TAFBNO
TAF
KBNO 010520Z 0106/0206 VRB05KT P6SM SKC=



000
FTUS45 KBOI 010520
TAFMYL
TAF
KMYL 010520Z 0106/0206 VRB05KT P6SM SKC=



000
FTUS45 KBOI 010520
TAFBOI
TAF
KBOI 010520Z 0106/0206 16006KT P6SM SKC
     FM011600 27006KT P6SM SKC=



000
FTUS45 KBOI 010520
TAFJER
TAF
KJER 010520Z 0106/0206 19006KT P6SM SKC
     FM011600 25012KT P6SM SKC
     FM020400 VRB05KT P6SM SKC=



000
FTUS45 KBOI 312337
TAFJER
TAF
KJER 312337Z 0100/0124 25011G19KT P6SM SKC
     FM010100 22006KT P6SM SKC
     FM011600 25012KT P6SM SKC=



000
FTUS45 KBOI 312337
TAFBKE
TAF
KBKE 312337Z 0100/0124 33005KT P6SM SKC=



000
FTUS45 KBOI 312337
TAFBOI
TAF
KBOI 312337Z 0100/0124 31008KT P6SM SKC
     FM011000 16006KT P6SM SKC
     FM011600 27006KT P6SM SKC=



000
FTUS45 KBOI 312337
TAFBNO
TAF
KBNO 312337Z 0100/0124 24010KT P6SM SCT035 BKN060
     FM010100 28009KT P6SM SKC
     FM010800 VRB04KT P6SM SKC=



000
FTUS45 KBOI 312337
TAFTWF
TAF
KTWF 312337Z 0100/0124 27010G18KT P6SM SKC
     FM010200 22011KT P6SM SKC
     FM011600 27013KT P6SM SKC=



000
FTUS45 KBOI 312337
TAFMYL
TAF
KMYL 312337Z 0100/0124 21008KT P6SM BKN060
     FM010300 VRB03KT P6SM SKC=



000
FTUS45 KBOI 312337
TAFTWF
TAF
KTWF 312337Z 0100/0124 27010G18KT P6SM SKC
     FM010200 22011KT P6SM SKC
     FM011600 27013KT P6SM SKC=



000
FTUS45 KBOI 312337
TAFBNO
TAF
KBNO 312337Z 0100/0124 24010KT P6SM SCT035 BKN060
     FM010100 28009KT P6SM SKC
     FM010800 VRB04KT P6SM SKC=



000
FTUS45 KBOI 312337
TAFBOI
TAF
KBOI 312337Z 0100/0124 31008KT P6SM SKC
     FM011000 16006KT P6SM SKC
     FM011600 27006KT P6SM SKC=



000
FTUS45 KBOI 312337
TAFJER
TAF
KJER 312337Z 0100/0124 25011G19KT P6SM SKC
     FM010100 22006KT P6SM SKC
     FM011600 25012KT P6SM SKC=



000
FTUS45 KBOI 312337
TAFBKE
TAF
KBKE 312337Z 0100/0124 33005KT P6SM SKC=



000
FTUS45 KBOI 312337
TAFMYL
TAF
KMYL 312337Z 0100/0124 21008KT P6SM BKN060
     FM010300 VRB03KT P6SM SKC=



000
FTUS45 KBOI 311726
TAFTWF
TAF
KTWF 311726Z 3118/0118 27015G25KT P6SM SKC
     FM010100 25011KT P6SM SKC
     FM010300 20013KT P6SM SKC
     FM011600 25013KT P6SM SKC=



000
FTUS45 KBOI 311726
TAFBNO
TAF
KBNO 311726Z 3118/0118 24010KT P6SM SCT035 BKN060
     FM010100 28009KT P6SM SKC
     FM010800 VRB04KT P6SM SKC=



000
FTUS45 KBOI 311726
TAFMYL
TAF
KMYL 311726Z 3118/0118 21008KT P6SM SCT035 BKN060
     FM010400 VRB03KT P6SM SKC=



000
FTUS45 KBOI 311726
TAFJER
TAF
KJER 311726Z 3118/0118 25017G27KT P6SM SKC
     FM010100 22008KT P6SM SKC
     FM011600 25012KT P6SM SKC=



000
FTUS45 KBOI 311726
TAFBKE
TAF
KBKE 311726Z 3118/0118 33006KT P6SM BKN035 OVC060
     FM010200 VRB04KT P6SM SKC=



000
FTUS45 KBOI 311726
TAFBOI
TAF
KBOI 311726Z 3118/0118 31010KT P6SM SCT100
     FM010300 16006KT P6SM SKC
     FM011400 27006KT P6SM SKC=



000
FTUS45 KBOI 311726
TAFBNO
TAF
KBNO 311726Z 3118/0118 24010KT P6SM SCT035 BKN060
     FM010100 28009KT P6SM SKC
     FM010800 VRB04KT P6SM SKC=



000
FTUS45 KBOI 311726
TAFJER
TAF
KJER 311726Z 3118/0118 25017G27KT P6SM SKC
     FM010100 22008KT P6SM SKC
     FM011600 25012KT P6SM SKC=



000
FTUS45 KBOI 311726
TAFBKE
TAF
KBKE 311726Z 3118/0118 33006KT P6SM BKN035 OVC060
     FM010200 VRB04KT P6SM SKC=



000
FTUS45 KBOI 311726
TAFMYL
TAF
KMYL 311726Z 3118/0118 21008KT P6SM SCT035 BKN060
     FM010400 VRB03KT P6SM SKC=



000
FTUS45 KBOI 311726
TAFTWF
TAF
KTWF 311726Z 3118/0118 27015G25KT P6SM SKC
     FM010100 25011KT P6SM SKC
     FM010300 20013KT P6SM SKC
     FM011600 25013KT P6SM SKC=



000
FTUS45 KBOI 311726
TAFBOI
TAF
KBOI 311726Z 3118/0118 31010KT P6SM SCT100
     FM010300 16006KT P6SM SKC
     FM011400 27006KT P6SM SKC=



000
FTUS45 KBOI 311401 AAA
TAFBKE
TAF AMD
KBKE 311401Z 3114/0112 VRB03KT P6SM BKN025
     FM311600 VRB04KT P6SM SCT030 SCT060 SCT200
     FM312100 31009KT P6SM SCT200
     FM010500 VRB04KT P6SM SKC=



000
FTUS45 KBOI 311401 AAA
TAFBKE
TAF AMD
KBKE 311401Z 3114/0112 VRB03KT P6SM BKN025
     FM311600 VRB04KT P6SM SCT030 SCT060 SCT200
     FM312100 31009KT P6SM SCT200
     FM010500 VRB04KT P6SM SKC=



000
FTUS45 KBOI 311120
TAFTWF
TAF
KTWF 311120Z 3112/0112 22012KT P6SM FEW100
     FM311600 27015G25KT P6SM SCT200
     FM010100 28011KT P6SM FEW200
     FM010300 21013KT P6SM SKC=



000
FTUS45 KBOI 311120
TAFTWF
TAF
KTWF 311120Z 3112/0112 22012KT P6SM FEW100
     FM311600 27015G25KT P6SM SCT200
     FM010100 28011KT P6SM FEW200
     FM010300 21013KT P6SM SKC=



000
FTUS45 KBOI 311120
TAFBNO
TAF
KBNO 311120Z 3112/0112 VRB04KT P6SM SCT200
     FM311900 24010KT P6SM SCT200
     FM010100 28009KT P6SM SKC
     FM011000 VRB04KT P6SM SKC=



000
FTUS45 KBOI 311120
TAFBOI
TAF
KBOI 311120Z 3112/0112 VRB04KT P6SM FEW100
     FM311900 31012KT P6SM SCT200
     FM010300 VRB04KT P6SM SKC=



000
FTUS45 KBOI 311120
TAFJER
TAF
KJER 311120Z 3112/0112 22008KT P6SM FEW100
     FM311600 25017G27KT P6SM SCT200
     FM010100 23010KT P6SM FEW200=



000
FTUS45 KBOI 311120
TAFBNO
TAF
KBNO 311120Z 3112/0112 VRB04KT P6SM SCT200
     FM311900 24010KT P6SM SCT200
     FM010100 28009KT P6SM SKC
     FM011000 VRB04KT P6SM SKC=



000
FTUS45 KBOI 311120
TAFMYL
TAF
KMYL 311120Z 3112/0112 VRB04KT P6SM VCSH SCT025 BKN040
     FM311400 VRB03KT P6SM FEW040 BKN080 BKN200
     FM311900 23009KT P6SM SCT200
     FM010300 VRB03KT P6SM SKC=



000
FTUS45 KBOI 311120
TAFBKE
TAF
KBKE 311120Z 3112/0112 VRB03KT P6SM VCFG SCT035 BKN060
     FM311600 VRB04KT P6SM FEW060 SCT200
     FM312100 31009KT P6SM SCT200
     FM010500 VRB04KT P6SM SKC=



000
FTUS45 KBOI 311120
TAFBKE
TAF
KBKE 311120Z 3112/0112 VRB03KT P6SM VCFG SCT035 BKN060
     FM311600 VRB04KT P6SM FEW060 SCT200
     FM312100 31009KT P6SM SCT200
     FM010500 VRB04KT P6SM SKC=



000
FTUS45 KBOI 311120
TAFJER
TAF
KJER 311120Z 3112/0112 22008KT P6SM FEW100
     FM311600 25017G27KT P6SM SCT200
     FM010100 23010KT P6SM FEW200=



000
FTUS45 KBOI 311120
TAFBOI
TAF
KBOI 311120Z 3112/0112 VRB04KT P6SM FEW100
     FM311900 31012KT P6SM SCT200
     FM010300 VRB04KT P6SM SKC=



000
FTUS45 KBOI 311120
TAFMYL
TAF
KMYL 311120Z 3112/0112 VRB04KT P6SM VCSH SCT025 BKN040
     FM311400 VRB03KT P6SM FEW040 BKN080 BKN200
     FM311900 23009KT P6SM SCT200
     FM010300 VRB03KT P6SM SKC=



000
FTUS45 KBOI 310902 AAA
TAFMYL
TAF AMD
KMYL 310902Z 3109/0106 VRB04KT P6SM VCSH BKN025 OVC040
     FM311100 VRB03KT P6SM BKN080 BKN200
     FM311900 22008KT P6SM SCT100=



000
FTUS45 KBOI 310858 AAA
TAFJER
TAF AMD
KJER 310858Z 3109/0106 22011KT P6SM SCT090 BKN150
     FM311600 24015G25KT P6SM SCT200=



000
FTUS45 KBOI 310858 AAA
TAFJER
TAF AMD
KJER 310858Z 3109/0106 22011KT P6SM SCT090 BKN150
     FM311600 24015G25KT P6SM SCT200=



000
FTUS45 KBOI 310716 AAA
TAFTWF
TAF AMD
KTWF 310716Z 3107/0106 22012KT P6SM SCT070 BKN100
     FM311600 27015G25KT P6SM SCT180=



000
FTUS45 KBOI 310716 AAA
TAFTWF
TAF AMD
KTWF 310716Z 3107/0106 22012KT P6SM SCT070 BKN100
     FM311600 27015G25KT P6SM SCT180=



000
FTUS45 KBOI 310522
TAFBOI
TAF
KBOI 310522Z 3106/0106 30008KT P6SM SCT100 BKN200
     FM312000 31012KT P6SM SKC=



000
FTUS45 KBOI 310522
TAFTWF
TAF
KTWF 310522Z 3106/0106 29016G26KT P6SM -SHRA BKN080 BKN200
     FM310800 26014KT P6SM SCT070 BKN100
     FM311600 27015G25KT P6SM SCT180=



000
FTUS45 KBOI 310522
TAFBNO
TAF
KBNO 310522Z 3106/0106 27004KT P6SM SCT070 BKN100
     FM311900 24010KT P6SM SCT200=



000
FTUS45 KBOI 310522
TAFMYL
TAF
KMYL 310522Z 3106/0106 VRB03KT P6SM BKN080 BKN200
     FM311900 22008KT P6SM SCT100=



000
FTUS45 KBOI 310522
TAFJER
TAF
KJER 310522Z 3106/0106 25014G24KT P6SM -SHRA BKN080 OVC100
     FM310700 26012KT P6SM SCT090 BKN150
     FM311600 24015G25KT P6SM SCT200=



000
FTUS45 KBOI 310522
TAFBKE
TAF
KBKE 310522Z 3106/0106 VRB03KT P6SM SCT070
     FM312000 32009KT P6SM SCT100=



000
FTUS45 KBOI 310522
TAFJER
TAF
KJER 310522Z 3106/0106 25014G24KT P6SM -SHRA BKN080 OVC100
     FM310700 26012KT P6SM SCT090 BKN150
     FM311600 24015G25KT P6SM SCT200=



000
FTUS45 KBOI 310522
TAFBOI
TAF
KBOI 310522Z 3106/0106 30008KT P6SM SCT100 BKN200
     FM312000 31012KT P6SM SKC=



000
FTUS45 KBOI 310522
TAFMYL
TAF
KMYL 310522Z 3106/0106 VRB03KT P6SM BKN080 BKN200
     FM311900 22008KT P6SM SCT100=



000
FTUS45 KBOI 310522
TAFBKE
TAF
KBKE 310522Z 3106/0106 VRB03KT P6SM SCT070
     FM312000 32009KT P6SM SCT100=



000
FTUS45 KBOI 310522
TAFTWF
TAF
KTWF 310522Z 3106/0106 29016G26KT P6SM -SHRA BKN080 BKN200
     FM310800 26014KT P6SM SCT070 BKN100
     FM311600 27015G25KT P6SM SCT180=



000
FTUS45 KBOI 310522
TAFBNO
TAF
KBNO 310522Z 3106/0106 27004KT P6SM SCT070 BKN100
     FM311900 24010KT P6SM SCT200=



000
FTUS45 KBOI 310352 AAA
TAFJER
TAF AMD
KJER 310352Z 3104/3124 25012KT P6SM VCSH SCT120
     FM310430 29030G42KT P6SM -SHRA BKN100
     FM310600 26018KT P6SM VCSH SCT070 BKN100
     FM310900 23010KT P6SM SCT080
     FM311600 24015G25KT P6SM SCT180=



000
FTUS45 KBOI 310352 AAA
TAFJER
TAF AMD
KJER 310352Z 3104/3124 25012KT P6SM VCSH SCT120
     FM310430 29030G42KT P6SM -SHRA BKN100
     FM310600 26018KT P6SM VCSH SCT070 BKN100
     FM310900 23010KT P6SM SCT080
     FM311600 24015G25KT P6SM SCT180=



000
FTUS45 KBOI 310337 AAC
TAFBOI
TAF AMD
KBOI 310337Z 3104/3124 33012G23KT P6SM -SHRA BKN090
     FM310500 31008KT P6SM SCT100 BKN150
     FM312000 31012KT P6SM SKC=



000
FTUS45 KBOI 310337 AAC
TAFBOI
TAF AMD
KBOI 310337Z 3104/3124 33012G23KT P6SM -SHRA BKN090
     FM310500 31008KT P6SM SCT100 BKN150
     FM312000 31012KT P6SM SKC=



000
FTUS45 KBOI 310331 AAB
TAFTWF
TAF AMD
KTWF 310331Z 3104/3124 29010KT P6SM VCSH BKN200
     FM310430 30030G46KT 4SM -SHRA BLDU OVC070
     FM310500 30025G35KT P6SM BKN100
     FM310700 26018KT P6SM SCT070 BKN100
     FM311600 27015G25KT P6SM SCT180=



000
FTUS45 KBOI 310331 AAB
TAFTWF
TAF AMD
KTWF 310331Z 3104/3124 29010KT P6SM VCSH BKN200
     FM310430 30030G46KT 4SM -SHRA BLDU OVC070
     FM310500 30025G35KT P6SM BKN100
     FM310700 26018KT P6SM SCT070 BKN100
     FM311600 27015G25KT P6SM SCT180=



000
FTUS45 KBOI 310228 AAB
TAFBOI
TAF AMD
KBOI 310228Z 3102/3124 33025G40KT P6SM -SHRA VCTS BKN100CB BKN200
     FM310330 31008KT P6SM SCT100 BKN150
     FM312000 31012KT P6SM SKC=



000
FTUS45 KBOI 310228 AAB
TAFBOI
TAF AMD
KBOI 310228Z 3102/3124 33025G40KT P6SM -SHRA VCTS BKN100CB BKN200
     FM310330 31008KT P6SM SCT100 BKN150
     FM312000 31012KT P6SM SKC=



000
FTUS45 KBOI 310057 AAA
TAFMYL
TAF AMD
KMYL 310057Z 3101/3124 26008KT P6SM VCTS BKN100CB BKN200
     FM310230 34006KT P6SM -SHRA SCT050 BKN070
      TEMPO 3103/3105 27012G22KT P6SM OVC060
     FM310700 36006KT P6SM SCT070 BKN100
     FM311900 22008KT P6SM SCT100=



000
FTUS45 KBOI 310057 AAA
TAFMYL
TAF AMD
KMYL 310057Z 3101/3124 26008KT P6SM VCTS BKN100CB BKN200
     FM310230 34006KT P6SM -SHRA SCT050 BKN070
      TEMPO 3103/3105 27012G22KT P6SM OVC060
     FM310700 36006KT P6SM SCT070 BKN100
     FM311900 22008KT P6SM SCT100=



000
FTUS45 KBOI 310022 AAA
TAFTWF
TAF AMD
KTWF 310022Z 3100/3124 29010KT P6SM VCSH BKN200
      TEMPO 3100/3102 24015G25KT -SHRA SCT120 BKN200
     FM310200 23010KT P6SM SCT100
     FM310700 26014KT P6SM VCSH SCT070 BKN100
     FM311000 24012KT P6SM SCT070 BKN100
     FM311600 27015G25KT P6SM SCT180=



000
FTUS45 KBOI 310022 AAA
TAFTWF
TAF AMD
KTWF 310022Z 3100/3124 29010KT P6SM VCSH BKN200
      TEMPO 3100/3102 24015G25KT -SHRA SCT120 BKN200
     FM310200 23010KT P6SM SCT100
     FM310700 26014KT P6SM VCSH SCT070 BKN100
     FM311000 24012KT P6SM SCT070 BKN100
     FM311600 27015G25KT P6SM SCT180=



000
FTUS45 KBOI 302336
TAFBNO
TAF
KBNO 302336Z 3100/3124 22017KT P6SM VCSH SCT070 BKN100
      TEMPO 3100/3103 27015G35KT -SHRA OVC070
     FM310300 26006KT P6SM SCT100
     FM311400 24010KT P6SM SCT200=



000
FTUS45 KBOI 302336
TAFJER
TAF
KJER 302336Z 3100/3124 25012KT P6SM SCT120
     FM310100 24008KT P6SM SCT100
     FM310600 26014KT P6SM VCSH SCT070 BKN100
     FM310900 23010KT P6SM SCT080
     FM311600 24015G25KT P6SM SCT180=



000
FTUS45 KBOI 302336
TAFBNO
TAF
KBNO 302336Z 3100/3124 22017KT P6SM VCSH SCT070 BKN100
      TEMPO 3100/3103 27015G35KT -SHRA OVC070
     FM310300 26006KT P6SM SCT100
     FM311400 24010KT P6SM SCT200=



000
FTUS45 KBOI 302336
TAFMYL
TAF
KMYL 302336Z 3100/3124 24010G18KT P6SM SCT100 BKN200
     FM310230 34006KT P6SM -SHRA SCT050 BKN070
      TEMPO 3103/3105 27012G22KT P6SM OVC060
     FM310700 36006KT P6SM SCT070 BKN100
     FM311900 22008KT P6SM SCT100=



000
FTUS45 KBOI 302336
TAFBOI
TAF
KBOI 302336Z 3100/3124 31008G14KT P6SM SCT100 BKN200
     FM310100 33010G20KT P6SM VCSH SCT080 BKN120
     FM310300 32018G28KT P6SM SCT070 BKN100 OVC200
     FM310500 31008KT P6SM SCT100 BKN150
     FM312000 31012KT P6SM SKC=



000
FTUS45 KBOI 302336
TAFBKE
TAF
KBKE 302336Z 3100/3124 32015G25KT P6SM -SHRA VCTS BKN070CB BKN100
     FM310200 33013KT P6SM SCT060 BKN100
     FM311200 30008KT P6SM SCT100=



000
FTUS45 KBOI 302336
TAFTWF
TAF
KTWF 302336Z 3100/3124 29010KT P6SM BKN200
     FM310200 23010KT P6SM SCT100
     FM310700 26014KT P6SM VCSH SCT070 BKN100
     FM311000 24012KT P6SM SCT070 BKN100
     FM311600 27015G25KT P6SM SCT180=



000
FTUS45 KBOI 302336
TAFBKE
TAF
KBKE 302336Z 3100/3124 32015G25KT P6SM -SHRA VCTS BKN070CB BKN100
     FM310200 33013KT P6SM SCT060 BKN100
     FM311200 30008KT P6SM SCT100=



000
FTUS45 KBOI 302336
TAFJER
TAF
KJER 302336Z 3100/3124 25012KT P6SM SCT120
     FM310100 24008KT P6SM SCT100
     FM310600 26014KT P6SM VCSH SCT070 BKN100
     FM310900 23010KT P6SM SCT080
     FM311600 24015G25KT P6SM SCT180=



000
FTUS45 KBOI 302336
TAFMYL
TAF
KMYL 302336Z 3100/3124 24010G18KT P6SM SCT100 BKN200
     FM310230 34006KT P6SM -SHRA SCT050 BKN070
      TEMPO 3103/3105 27012G22KT P6SM OVC060
     FM310700 36006KT P6SM SCT070 BKN100
     FM311900 22008KT P6SM SCT100=



000
FTUS45 KBOI 302336
TAFTWF
TAF
KTWF 302336Z 3100/3124 29010KT P6SM BKN200
     FM310200 23010KT P6SM SCT100
     FM310700 26014KT P6SM VCSH SCT070 BKN100
     FM311000 24012KT P6SM SCT070 BKN100
     FM311600 27015G25KT P6SM SCT180=



000
FTUS45 KBOI 302336
TAFBOI
TAF
KBOI 302336Z 3100/3124 31008G14KT P6SM SCT100 BKN200
     FM310100 33010G20KT P6SM VCSH SCT080 BKN120
     FM310300 32018G28KT P6SM SCT070 BKN100 OVC200
     FM310500 31008KT P6SM SCT100 BKN150
     FM312000 31012KT P6SM SKC=



000
FTUS45 KBOI 302245 AAB
TAFBKE
TAF AMD
KBKE 302245Z 3023/3118 31013KT P6SM VCSH SCT070 BKN100
     FM302330 32015G25KT P6SM -SHRA VCTS BKN060CB OVC100
     FM310200 33009KT P6SM SCT060 BKN100
     FM311200 30008KT P6SM SCT100=



000
FTUS45 KBOI 302245 AAB
TAFBKE
TAF AMD
KBKE 302245Z 3023/3118 31013KT P6SM VCSH SCT070 BKN100
     FM302330 32015G25KT P6SM -SHRA VCTS BKN060CB OVC100
     FM310200 33009KT P6SM SCT060 BKN100
     FM311200 30008KT P6SM SCT100=



000
FTUS45 KBOI 302111 AAC
TAFBOI
TAF AMD
KBOI 302111Z 3021/3118 31008G18KT P6SM SCT100 BKN200
     FM310000 33010G20KT P6SM VCSH SCT080 BKN120
     FM310300 32015G25KT P6SM SCT070 BKN100 OVC200
     FM310500 31008KT P6SM SCT080 BKN120
     FM311200 31012KT P6SM SCT100=



000
FTUS45 KBOI 302111 AAC
TAFBOI
TAF AMD
KBOI 302111Z 3021/3118 31008G18KT P6SM SCT100 BKN200
     FM310000 33010G20KT P6SM VCSH SCT080 BKN120
     FM310300 32015G25KT P6SM SCT070 BKN100 OVC200
     FM310500 31008KT P6SM SCT080 BKN120
     FM311200 31012KT P6SM SCT100=



000
FTUS45 KBOI 302109 AAB
TAFBNO
TAF AMD
KBNO 302109Z 3021/3118 22010G20KT P6SM VCSH SCT070 BKN100
     FM310000 27012G22KT P6SM SCT080 BKN150
     FM310300 26006KT P6SM SCT100
     FM311400 24010KT P6SM SCT200=



000
FTUS45 KBOI 302109 AAB
TAFBNO
TAF AMD
KBNO 302109Z 3021/3118 22010G20KT P6SM VCSH SCT070 BKN100
     FM310000 27012G22KT P6SM SCT080 BKN150
     FM310300 26006KT P6SM SCT100
     FM311400 24010KT P6SM SCT200=



000
FTUS45 KBOI 302036 AAA
TAFBKE
TAF AMD
KBKE 302036Z 3021/3118 31009KT P6SM VCSH SCT070 BKN100
     FM310100 31008KT P6SM -SHRA BKN060 OVC100
     FM310400 33005KT P6SM SCT060 BKN100
     FM311200 30008KT P6SM SCT100=



000
FTUS45 KBOI 301949 AAB
TAFBOI
TAF AMD
KBOI 301949Z 3020/3118 31008KT P6SM SCT100 BKN200
     FM310300 32013KT P6SM VCSH SCT070 BKN100 OVC200
     FM310500 31008KT P6SM SCT080 BKN120
     FM311200 31012KT P6SM SCT100=



000
FTUS45 KBOI 301949 AAB
TAFBOI
TAF AMD
KBOI 301949Z 3020/3118 31008KT P6SM SCT100 BKN200
     FM310300 32013KT P6SM VCSH SCT070 BKN100 OVC200
     FM310500 31008KT P6SM SCT080 BKN120
     FM311200 31012KT P6SM SCT100=



000
FTUS45 KBOI 301947 AAA
TAFBNO
TAF AMD
KBNO 301947Z 3020/3118 VRB05KT P6SM VCSH SCT070 BKN100
     FM310000 27010G18KT P6SM SCT080 BKN150
     FM310300 26006KT P6SM SCT100
     FM311400 27012KT P6SM SCT200=



000
FTUS45 KBOI 301947 AAA
TAFBNO
TAF AMD
KBNO 301947Z 3020/3118 VRB05KT P6SM VCSH SCT070 BKN100
     FM310000 27010G18KT P6SM SCT080 BKN150
     FM310300 26006KT P6SM SCT100
     FM311400 27012KT P6SM SCT200=



000
FTUS45 KBOI 301936 AAA
TAFJER
TAF AMD
KJER 301936Z 3020/3118 25012KT P6SM SCT100
     FM310100 24008KT P6SM SCT100
     FM310600 26014KT P6SM VCSH SCT070 BKN100
     FM310900 23010KT P6SM SCT080
     FM311400 24015G25KT P6SM SCT180=



000
FTUS45 KBOI 301936 AAA
TAFJER
TAF AMD
KJER 301936Z 3020/3118 25012KT P6SM SCT100
     FM310100 24008KT P6SM SCT100
     FM310600 26014KT P6SM VCSH SCT070 BKN100
     FM310900 23010KT P6SM SCT080
     FM311400 24015G25KT P6SM SCT180=



000
FTUS45 KBOI 301933 AAA
TAFTWF
TAF AMD
KTWF 301933Z 3020/3118 28010KT P6SM SCT100 BKN200
     FM310200 23010KT P6SM SCT100
     FM310700 26014KT P6SM VCSH SCT070 BKN100
     FM311000 24012KT P6SM SCT070 BKN100
     FM311400 27015G25KT P6SM SCT180=



000
FTUS45 KBOI 301933 AAA
TAFTWF
TAF AMD
KTWF 301933Z 3020/3118 28010KT P6SM SCT100 BKN200
     FM310200 23010KT P6SM SCT100
     FM310700 26014KT P6SM VCSH SCT070 BKN100
     FM311000 24012KT P6SM SCT070 BKN100
     FM311400 27015G25KT P6SM SCT180=



000
FTUS45 KBOI 301753
TAFJER
TAF
KJER 301753Z 3018/3118 25015G25KT P6SM SCT100 BKN200
     FM310100 25010KT P6SM SCT100
     FM310800 24010KT P6SM SCT070 BKN100
     FM311400 24010G20KT P6SM SCT180=



000
FTUS45 KBOI 301753
TAFBOI
TAF
KBOI 301753Z 3018/3118 31012KT P6SM SCT100 BKN200
     FM310300 32013KT P6SM BKN100 OVC200
     FM310500 31008KT P6SM VCSH SCT060 OVC100
     FM310800 30005KT P6SM FEW060 BKN100
     FM311200 31010KT P6SM SCT100=



000
FTUS45 KBOI 301753
TAFBKE
TAF
KBKE 301753Z 3018/3118 31011KT P6SM BKN100 BKN200
     FM302200 31009KT P6SM VCSH SCT070 BKN100
     FM310300 31008KT P6SM -SHRA BKN060 OVC100
     FM310700 30005KT P6SM SCT060 BKN100
     FM311200 30008KT P6SM SCT100=



000
FTUS45 KBOI 301753
TAFTWF
TAF
KTWF 301753Z 3018/3118 28018G28KT P6SM SCT100 BKN200
     FM310200 23012KT P6SM SCT100
     FM310900 22010KT P6SM SCT070 BKN100
     FM311400 27015G25KT P6SM SCT180=



000
FTUS45 KBOI 301753
TAFMYL
TAF
KMYL 301753Z 3018/3118 24010KT P6SM SCT100 BKN200
     FM310000 32006KT P6SM VCSH SCT070 BKN100
     FM310300 34006KT P6SM -SHRA SCT050 BKN070
     FM310700 36006KT P6SM SCT070 BKN100
     FM311400 22008KT P6SM SCT100=



000
FTUS45 KBOI 301753
TAFBNO
TAF
KBNO 301753Z 3018/3118 26012G22KT P6SM SCT100 BKN200
     FM302100 28012KT P6SM VCSH SCT070 BKN100
     FM310300 26007KT P6SM SCT080 BKN150
     FM310600 26006KT P6SM SCT100
     FM311400 27010KT P6SM SCT200=



000
FTUS45 KBOI 301753
TAFTWF
TAF
KTWF 301753Z 3018/3118 28018G28KT P6SM SCT100 BKN200
     FM310200 23012KT P6SM SCT100
     FM310900 22010KT P6SM SCT070 BKN100
     FM311400 27015G25KT P6SM SCT180=



000
FTUS45 KBOI 301753
TAFBOI
TAF
KBOI 301753Z 3018/3118 31012KT P6SM SCT100 BKN200
     FM310300 32013KT P6SM BKN100 OVC200
     FM310500 31008KT P6SM VCSH SCT060 OVC100
     FM310800 30005KT P6SM FEW060 BKN100
     FM311200 31010KT P6SM SCT100=



000
FTUS45 KBOI 301753
TAFBNO
TAF
KBNO 301753Z 3018/3118 26012G22KT P6SM SCT100 BKN200
     FM302100 28012KT P6SM VCSH SCT070 BKN100
     FM310300 26007KT P6SM SCT080 BKN150
     FM310600 26006KT P6SM SCT100
     FM311400 27010KT P6SM SCT200=



000
FTUS45 KBOI 301753
TAFJER
TAF
KJER 301753Z 3018/3118 25015G25KT P6SM SCT100 BKN200
     FM310100 25010KT P6SM SCT100
     FM310800 24010KT P6SM SCT070 BKN100
     FM311400 24010G20KT P6SM SCT180=



000
FTUS45 KBOI 301753
TAFBKE
TAF
KBKE 301753Z 3018/3118 31011KT P6SM BKN100 BKN200
     FM302200 31009KT P6SM VCSH SCT070 BKN100
     FM310300 31008KT P6SM -SHRA BKN060 OVC100
     FM310700 30005KT P6SM SCT060 BKN100
     FM311200 30008KT P6SM SCT100=



000
FTUS45 KBOI 301753
TAFMYL
TAF
KMYL 301753Z 3018/3118 24010KT P6SM SCT100 BKN200
     FM310000 32006KT P6SM VCSH SCT070 BKN100
     FM310300 34006KT P6SM -SHRA SCT050 BKN070
     FM310700 36006KT P6SM SCT070 BKN100
     FM311400 22008KT P6SM SCT100=



000
FTUS45 KBOI 301412 AAA
TAFJER
TAF AMD
KJER 301412Z 3014/3112 22010KT P6SM FEW100 BKN200
     FM301700 25017G25KT P6SM SCT100 BKN200
     FM310100 25011KT P6SM SCT100 BKN200
     FM310300 24008KT P6SM VCSH FEW070 BKN100=



000
FTUS45 KBOI 301412 AAA
TAFJER
TAF AMD
KJER 301412Z 3014/3112 22010KT P6SM FEW100 BKN200
     FM301700 25017G25KT P6SM SCT100 BKN200
     FM310100 25011KT P6SM SCT100 BKN200
     FM310300 24008KT P6SM VCSH FEW070 BKN100=



000
FTUS45 KBOI 301405 AAA
TAFTWF
TAF AMD
KTWF 301405Z 3014/3112 24015G25KT P6SM SCT100 BKN200
     FM301800 28018G28KT P6SM SCT100 BKN200
     FM310100 28012KT P6SM SCT100 BKN200
     FM310300 23013KT P6SM VCSH FEW070 BKN100=



000
FTUS45 KBOI 301405 AAA
TAFTWF
TAF AMD
KTWF 301405Z 3014/3112 24015G25KT P6SM SCT100 BKN200
     FM301800 28018G28KT P6SM SCT100 BKN200
     FM310100 28012KT P6SM SCT100 BKN200
     FM310300 23013KT P6SM VCSH FEW070 BKN100=



000
FTUS45 KBOI 301120
TAFJER
TAF
KJER 301120Z 3012/3112 20012KT P6SM FEW100 BKN200
     FM301500 25020G30KT P6SM SCT100 BKN200
     FM310100 25011KT P6SM SCT100 BKN200
     FM310300 24008KT P6SM VCSH FEW070 BKN100=



000
FTUS45 KBOI 301120
TAFBKE
TAF
KBKE 301120Z 3012/3112 31005KT P6SM SCT100 BKN200
     FM301800 31011KT P6SM BKN100 BKN200
     FM310000 31009KT P6SM VCSH SCT070 BKN100
     FM310300 31008KT P6SM -SHRA BKN060 OVC100
     FM310700 30005KT P6SM SCT060 BKN100=



000
FTUS45 KBOI 301120
TAFTWF
TAF
KTWF 301120Z 3012/3112 22013KT P6SM FEW100 BKN200
     FM301500 27015G25KT P6SM SCT100 BKN200
     FM310100 28012KT P6SM SCT100 BKN200
     FM310300 23013KT P6SM VCSH FEW070 BKN100=



000
FTUS45 KBOI 301120
TAFBNO
TAF
KBNO 301120Z 3012/3112 28008KT P6SM SCT100 BKN200
     FM301900 25012G22KT P6SM SCT100 BKN200
     FM310100 28012KT P6SM VCSH SCT070 BKN100
     FM310600 26007KT P6SM FEW070 BKN100=



000
FTUS45 KBOI 301120
TAFMYL
TAF
KMYL 301120Z 3012/3112 VRB05KT P6SM SCT090 BKN200
     FM301900 24012KT P6SM SCT100 BKN200
     FM310300 32006KT P6SM VCSH SCT070 BKN100=



000
FTUS45 KBOI 301120
TAFBOI
TAF
KBOI 301120Z 3012/3112 31006KT P6SM VCSH SCT060 BKN100
     FM301500 31012KT P6SM SCT100 BKN200
     FM310300 32013KT P6SM VCSH BKN100 OVC200
     FM310600 31008KT P6SM -SHRA SCT060 OVC100
     FM310900 30005KT P6SM FEW060 BKN100=



000
FTUS45 KBOI 301120
TAFJER
TAF
KJER 301120Z 3012/3112 20012KT P6SM FEW100 BKN200
     FM301500 25020G30KT P6SM SCT100 BKN200
     FM310100 25011KT P6SM SCT100 BKN200
     FM310300 24008KT P6SM VCSH FEW070 BKN100=



000
FTUS45 KBOI 301120
TAFMYL
TAF
KMYL 301120Z 3012/3112 VRB05KT P6SM SCT090 BKN200
     FM301900 24012KT P6SM SCT100 BKN200
     FM310300 32006KT P6SM VCSH SCT070 BKN100=



000
FTUS45 KBOI 301120
TAFTWF
TAF
KTWF 301120Z 3012/3112 22013KT P6SM FEW100 BKN200
     FM301500 27015G25KT P6SM SCT100 BKN200
     FM310100 28012KT P6SM SCT100 BKN200
     FM310300 23013KT P6SM VCSH FEW070 BKN100=



000
FTUS45 KBOI 301120
TAFBNO
TAF
KBNO 301120Z 3012/3112 28008KT P6SM SCT100 BKN200
     FM301900 25012G22KT P6SM SCT100 BKN200
     FM310100 28012KT P6SM VCSH SCT070 BKN100
     FM310600 26007KT P6SM FEW070 BKN100=



000
FTUS45 KBOI 301120
TAFBKE
TAF
KBKE 301120Z 3012/3112 31005KT P6SM SCT100 BKN200
     FM301800 31011KT P6SM BKN100 BKN200
     FM310000 31009KT P6SM VCSH SCT070 BKN100
     FM310300 31008KT P6SM -SHRA BKN060 OVC100
     FM310700 30005KT P6SM SCT060 BKN100=



000
FTUS45 KBOI 301120
TAFBOI
TAF
KBOI 301120Z 3012/3112 31006KT P6SM VCSH SCT060 BKN100
     FM301500 31012KT P6SM SCT100 BKN200
     FM310300 32013KT P6SM VCSH BKN100 OVC200
     FM310600 31008KT P6SM -SHRA SCT060 OVC100
     FM310900 30005KT P6SM FEW060 BKN100=



000
FTUS45 KBOI 300520
TAFBNO
TAF
KBNO 300520Z 3006/3106 27008KT P6SM SCT200
     FM301800 24015G25KT P6SM SCT100 BKN200
     FM310300 29012KT P6SM VCSH BKN100=



000
FTUS45 KBOI 300520
TAFJER
TAF
KJER 300520Z 3006/3106 22010KT P6SM SCT100 BKN200
     FM301500 25015G25KT P6SM SCT100 BKN200
     FM310300 24008KT P6SM VCSH BKN150=



000
FTUS45 KBOI 300520
TAFBKE
TAF
KBKE 300520Z 3006/3106 30012KT P6SM SCT100 BKN200
     FM300800 29008KT P6SM BKN150
     FM301800 31011KT P6SM BKN100 BKN200
     FM310000 32008KT P6SM VCSH BKN100=



000
FTUS45 KBOI 300520
TAFBOI
TAF
KBOI 300520Z 3006/3106 VRB05KT P6SM VCTS SCT070CB BKN100
      TEMPO 3006/3007 32010G20KT P6SM
     FM300700 32010KT P6SM SCT100 BKN200
     FM310000 32011KT P6SM SCT100 BKN200
     FM310300 32015G25KT P6SM VCSH BKN100=



000
FTUS45 KBOI 300520
TAFTWF
TAF
KTWF 300520Z 3006/3106 19011KT P6SM SCT100 BKN200
     FM301200 24013KT P6SM SCT100 BKN200
     FM301800 27015G25KT P6SM SCT150 BKN200
     FM310000 28012KT P6SM BKN150
     FM310300 24012KT P6SM VCSH BKN150=



000
FTUS45 KBOI 300520
TAFMYL
TAF
KMYL 300520Z 3006/3106 VRB05KT P6SM VCSH BKN100
     FM301200 VRB05KT P6SM SCT080 BKN200
     FM301900 24010G17KT P6SM SCT100 BKN200
     FM310300 33005KT P6SM VCSH BKN100=



000
FTUS45 KBOI 300520
TAFTWF
TAF
KTWF 300520Z 3006/3106 19011KT P6SM SCT100 BKN200
     FM301200 24013KT P6SM SCT100 BKN200
     FM301800 27015G25KT P6SM SCT150 BKN200
     FM310000 28012KT P6SM BKN150
     FM310300 24012KT P6SM VCSH BKN150=



000
FTUS45 KBOI 300520
TAFMYL
TAF
KMYL 300520Z 3006/3106 VRB05KT P6SM VCSH BKN100
     FM301200 VRB05KT P6SM SCT080 BKN200
     FM301900 24010G17KT P6SM SCT100 BKN200
     FM310300 33005KT P6SM VCSH BKN100=



000
FTUS45 KBOI 300520
TAFBKE
TAF
KBKE 300520Z 3006/3106 30012KT P6SM SCT100 BKN200
     FM300800 29008KT P6SM BKN150
     FM301800 31011KT P6SM BKN100 BKN200
     FM310000 32008KT P6SM VCSH BKN100=



000
FTUS45 KBOI 300520
TAFBNO
TAF
KBNO 300520Z 3006/3106 27008KT P6SM SCT200
     FM301800 24015G25KT P6SM SCT100 BKN200
     FM310300 29012KT P6SM VCSH BKN100=



000
FTUS45 KBOI 300520
TAFJER
TAF
KJER 300520Z 3006/3106 22010KT P6SM SCT100 BKN200
     FM301500 25015G25KT P6SM SCT100 BKN200
     FM310300 24008KT P6SM VCSH BKN150=



000
FTUS45 KBOI 300520
TAFBOI
TAF
KBOI 300520Z 3006/3106 VRB05KT P6SM VCTS SCT070CB BKN100
      TEMPO 3006/3007 32010G20KT P6SM
     FM300700 32010KT P6SM SCT100 BKN200
     FM310000 32011KT P6SM SCT100 BKN200
     FM310300 32015G25KT P6SM VCSH BKN100=



000
FTUS45 KBOI 300442 AAB
TAFBOI
TAF AMD
KBOI 300442Z 3005/3024 VRB05KT P6SM VCTS SCT070CB BKN100
      TEMPO 3005/3007 VRB15G25KT P6SM
     FM300900 30008KT P6SM SCT100 BKN200
     FM301800 32011KT P6SM SCT100 BKN200=



000
FTUS45 KBOI 300442 AAB
TAFBOI
TAF AMD
KBOI 300442Z 3005/3024 VRB05KT P6SM VCTS SCT070CB BKN100
      TEMPO 3005/3007 VRB15G25KT P6SM
     FM300900 30008KT P6SM SCT100 BKN200
     FM301800 32011KT P6SM SCT100 BKN200=



000
FTUS45 KBOI 300328 AAA
TAFBKE
TAF AMD
KBKE 300328Z 3003/3024 32015KT P6SM VCSH SCT070 BKN100
     FM300600 30007KT P6SM SCT100 BKN200
     FM301800 31011KT P6SM BKN100 BKN200=



000
FTUS45 KBOI 300124 AAA
TAFBNO
TAF AMD
KBNO 300124Z 3001/3024 20011KT 5SM FU SCT100 BKN200
     FM300300 27008KT P6SM SCT200
     FM301800 25015G25KT P6SM SCT100 BKN200=



000
FTUS45 KBOI 300124 AAA
TAFBNO
TAF AMD
KBNO 300124Z 3001/3024 20011KT 5SM FU SCT100 BKN200
     FM300300 27008KT P6SM SCT200
     FM301800 25015G25KT P6SM SCT100 BKN200=



000
FTUS45 KBOI 292343 AAA
TAFJER
TAF AMD
KJER 292343Z 3000/3024 VRB05KT P6SM VCTS SCT120CB
      TEMPO 3000/3003 VRB15G25KT P6SM -TSRA SCT070CB BKN150
     FM300600 22010KT P6SM SCT100 BKN200
     FM301800 25015G25KT P6SM SCT100 BKN200=



000
FTUS45 KBOI 292343 AAA
TAFJER
TAF AMD
KJER 292343Z 3000/3024 VRB05KT P6SM VCTS SCT120CB
      TEMPO 3000/3003 VRB15G25KT P6SM -TSRA SCT070CB BKN150
     FM300600 22010KT P6SM SCT100 BKN200
     FM301800 25015G25KT P6SM SCT100 BKN200=



000
FTUS45 KBOI 292336
TAFTWF
TAF
KTWF 292336Z 3000/3024 VRB05KT P6SM VCTS SCT070CB BKN100
      TEMPO 3000/3003 VRB15G25KT P6SM -TSRA BKN070CB
     FM300500 20011KT P6SM SCT100 BKN200
     FM301200 24013KT P6SM SCT100 BKN200
     FM301800 27015G25KT P6SM SCT150 BKN200=



000
FTUS45 KBOI 292336
TAFJER
TAF
KJER 292336Z 3000/3024 VRB05KT P6SM VCSH SCT120
     FM300900 22010KT P6SM SCT100 BKN200
     FM301800 25015G25KT P6SM SCT100 BKN200=



000
FTUS45 KBOI 292336
TAFBOI
TAF
KBOI 292336Z 3000/3024 34006KT P6SM SCT120
     FM300300 VRB05KT P6SM VCSH SCT070 BKN100
      TEMPO 3003/3007 VRB15G25KT P6SM
     FM300900 30008KT P6SM SCT100 BKN200
     FM301800 32011KT P6SM SCT100 BKN200=



000
FTUS45 KBOI 292336
TAFBNO
TAF
KBNO 292336Z 3000/3024 20011KT 6SM FU SCT100 BKN200
     FM300300 27008KT P6SM SCT200
     FM301800 25015G25KT P6SM SCT100 BKN200=



000
FTUS45 KBOI 292336
TAFMYL
TAF
KMYL 292336Z 3000/3024 19011KT P6SM SCT120
     FM300300 VRB05KT P6SM -SHRA BKN050 OVC080
     FM300900 VRB03KT P6SM VCSH SCT050 BKN080
     FM301200 VRB05KT P6SM SCT080 BKN200
     FM301900 24010G18KT P6SM SCT100 BKN200=



000
FTUS45 KBOI 292336
TAFBKE
TAF
KBKE 292336Z 3000/3024 31011KT P6SM VCSH SCT070 BKN100
     FM300600 30007KT P6SM SCT100 BKN200
     FM301800 31011KT P6SM BKN100 BKN200=



000
FTUS45 KBOI 292336
TAFBNO
TAF
KBNO 292336Z 3000/3024 20011KT 6SM FU SCT100 BKN200
     FM300300 27008KT P6SM SCT200
     FM301800 25015G25KT P6SM SCT100 BKN200=



000
FTUS45 KBOI 292336
TAFBKE
TAF
KBKE 292336Z 3000/3024 31011KT P6SM VCSH SCT070 BKN100
     FM300600 30007KT P6SM SCT100 BKN200
     FM301800 31011KT P6SM BKN100 BKN200=



000
FTUS45 KBOI 292336
TAFTWF
TAF
KTWF 292336Z 3000/3024 VRB05KT P6SM VCTS SCT070CB BKN100
      TEMPO 3000/3003 VRB15G25KT P6SM -TSRA BKN070CB
     FM300500 20011KT P6SM SCT100 BKN200
     FM301200 24013KT P6SM SCT100 BKN200
     FM301800 27015G25KT P6SM SCT150 BKN200=



000
FTUS45 KBOI 292336
TAFMYL
TAF
KMYL 292336Z 3000/3024 19011KT P6SM SCT120
     FM300300 VRB05KT P6SM -SHRA BKN050 OVC080
     FM300900 VRB03KT P6SM VCSH SCT050 BKN080
     FM301200 VRB05KT P6SM SCT080 BKN200
     FM301900 24010G18KT P6SM SCT100 BKN200=



000
FTUS45 KBOI 292336
TAFBOI
TAF
KBOI 292336Z 3000/3024 34006KT P6SM SCT120
     FM300300 VRB05KT P6SM VCSH SCT070 BKN100
      TEMPO 3003/3007 VRB15G25KT P6SM
     FM300900 30008KT P6SM SCT100 BKN200
     FM301800 32011KT P6SM SCT100 BKN200=



000
FTUS45 KBOI 292336
TAFJER
TAF
KJER 292336Z 3000/3024 VRB05KT P6SM VCSH SCT120
     FM300900 22010KT P6SM SCT100 BKN200
     FM301800 25015G25KT P6SM SCT100 BKN200=



    US Dept of Commerce
    National Oceanic and Atmospheric Administration
    National Weather Service
    1325 East West Highway
    Silver Spring, MD 20910
    Page Author: NWS Internet Services Team
Disclaimer
Information Quality
Credits
Glossary
Privacy Policy
Freedom of Information Act (FOIA)
About Us
Career Opportunities